Time;durP1;ratioP1;P1;durP2;ratioP2;P2;SDS_P1;SDS_P2;PMS_P1;PMS_P2;Temp;Humidity;BMP_temperature;BMP_pressure;BME280_temperature;BME280_humidity;BME280_pressure;Samples;Min_cycle;Max_cycle;Signal;HPM_P1;HPM_P2
2022/09/30 00:00:57;;;;;;;1.38;0.82;;;6.20;99.90;;;;;;5032751;28;20095;-75
2022/09/30 00:03:23;;;;;;;1.52;0.82;;;6.20;99.90;;;;;;5034539;28;20013;-74
2022/09/30 00:05:57;;;;;;;1.00;0.30;;;6.10;99.90;;;;;;5032658;28;20025;-75
2022/09/30 00:08:22;;;;;;;2.97;0.70;;;6.10;99.90;;;;;;5032732;28;20014;-75
2022/09/30 00:11:02;;;;;;;0.98;0.30;;;6.10;99.90;;;;;;5034507;28;20064;-75
2022/09/30 00:13:27;;;;;;;1.08;0.30;;;6.10;99.90;;;;;;5034081;28;20029;-74
2022/09/30 00:15:53;;;;;;;1.65;0.50;;;6.00;99.90;;;;;;5033973;28;20026;-74
2022/09/30 00:18:18;;;;;;;3.80;0.55;;;6.00;99.90;;;;;;5033829;28;20033;-75
2022/09/30 00:20:44;;;;;;;1.45;0.70;;;6.00;99.90;;;;;;5033513;28;20076;-75
2022/09/30 00:23:09;;;;;;;0.90;0.50;;;6.00;99.90;;;;;;5032498;28;20112;-75
2022/09/30 00:25:35;;;;;;;1.85;0.35;;;6.00;99.90;;;;;;5032261;28;20056;-75
2022/09/30 00:28:01;;;;;;;1.08;0.38;;;6.00;99.90;;;;;;5033716;28;20403;-74
2022/09/30 00:30:26;;;;;;;1.20;0.35;;;5.90;99.90;;;;;;5033479;28;20029;-76
2022/09/30 00:32:52;;;;;;;0.93;0.30;;;5.90;99.90;;;;;;5033634;28;20030;-75
2022/09/30 00:35:17;;;;;;;1.60;0.60;;;5.80;99.90;;;;;;5033849;28;20160;-76
2022/09/30 00:37:43;;;;;;;2.05;0.50;;;5.80;99.90;;;;;;5057820;23;20033;-75
2022/09/30 00:40:10;;;;;;;1.83;0.40;;;5.80;99.90;;;;;;5053378;28;20059;-75
2022/09/30 00:42:39;;;;;;;1.27;0.40;;;5.80;99.90;;;;;;5053486;28;20025;-75
2022/09/30 00:45:09;;;;;;;0.90;0.20;;;5.80;99.90;;;;;;5052167;28;20024;-75
2022/09/30 00:47:40;;;;;;;0.98;0.20;;;5.80;99.90;;;;;;5052408;28;20021;-74
2022/09/30 00:50:19;;;;;;;1.48;0.25;;;5.70;99.90;;;;;;5052176;28;20025;-74
2022/09/30 00:52:49;;;;;;;4.07;0.60;;;5.70;99.90;;;;;;5052115;28;20025;-75
2022/09/30 00:55:25;;;;;;;1.10;0.52;;;5.80;99.90;;;;;;5053886;28;20024;-75
2022/09/30 00:57:51;;;;;;;1.40;0.35;;;5.80;99.90;;;;;;5053506;28;20017;-75
2022/09/30 01:00:17;;;;;;;0.82;0.20;;;5.80;99.90;;;;;;5054986;28;20025;-75
2022/09/30 01:02:45;;;;;;;2.25;0.47;;;5.80;99.90;;;;;;5056034;28;20024;-75
2022/09/30 01:05:14;;;;;;;2.40;0.68;;;5.80;99.90;;;;;;5056184;28;20052;-75
2022/09/30 01:07:41;;;;;;;1.67;0.10;;;5.80;99.90;;;;;;5055848;28;20375;-75
2022/09/30 01:10:06;;;;;;;1.27;0.47;;;5.70;99.90;;;;;;5055877;28;20028;-75
2022/09/30 01:12:32;;;;;;;2.47;0.60;;;5.70;99.90;;;;;;5057576;28;20021;-75
2022/09/30 01:14:59;;;;;;;2.08;0.40;;;5.70;99.90;;;;;;5055767;28;20028;-75
2022/09/30 01:17:59;;;;;;;1.38;0.32;;;5.70;99.90;;;;;;5057123;28;20017;-76
2022/09/30 01:20:48;;;;;;;0.88;0.30;;;5.60;99.90;;;;;;5034621;28;20033;-75
2022/09/30 01:23:58;;;;;;;2.15;0.55;;;5.60;99.90;;;;;;5055961;28;20037;-75
2022/09/30 01:26:31;;;;;;;12.45;0.52;;;5.60;99.90;;;;;;5056860;28;20021;-75
2022/09/30 01:29:20;;;;;;;2.17;0.28;;;5.60;99.90;;;;;;5056826;28;20091;-75
2022/09/30 01:32:07;;;;;;;0.93;0.22;;;5.70;99.90;;;;;;5056548;28;20037;-75
2022/09/30 01:34:58;;;;;;;2.92;0.30;;;5.70;99.90;;;;;;5056961;28;20037;-75
2022/09/30 01:37:41;;;;;;;1.52;0.38;;;5.60;99.90;;;;;;5055230;28;20033;-75
2022/09/30 01:40:32;;;;;;;1.63;0.40;;;5.60;99.90;;;;;;5056746;28;20060;-75
2022/09/30 01:43:10;;;;;;;0.98;0.40;;;5.60;99.90;;;;;;5056757;28;20102;-76
2022/09/30 01:45:48;;;;;;;0.43;0.10;;;5.70;99.90;;;;;;5057079;28;20049;-75
2022/09/30 01:48:57;;;;;;;1.55;0.55;;;5.70;99.90;;;;;;5056659;28;20018;-74
2022/09/30 01:51:31;;;;;;;1.75;0.57;;;5.80;99.90;;;;;;5017853;28;20025;-74
2022/09/30 01:54:08;;;;;;;1.15;0.20;;;5.90;99.90;;;;;;5053225;28;20116;-75
2022/09/30 01:56:41;;;;;;;1.10;0.70;;;5.90;99.90;;;;;;5055038;28;20025;-74
2022/09/30 01:59:32;;;;;;;2.17;0.73;;;5.90;99.90;;;;;;5056240;28;20032;-75
2022/09/30 02:02:16;;;;;;;1.27;0.40;;;6.00;99.90;;;;;;5054804;28;20032;-75
2022/09/30 02:04:47;;;;;;;0.93;0.30;;;6.00;99.90;;;;;;5054988;28;20429;-75
2022/09/30 02:07:27;;;;;;;1.23;0.45;;;6.10;99.90;;;;;;5054964;28;20017;-75
2022/09/30 02:10:11;;;;;;;1.73;0.45;;;6.10;99.90;;;;;;5054692;28;20021;-75
2022/09/30 02:12:46;;;;;;;1.27;0.25;;;6.20;99.90;;;;;;5055624;28;20021;-75
2022/09/30 02:15:17;;;;;;;1.50;0.30;;;6.20;99.90;;;;;;5056224;28;20017;-75
2022/09/30 02:17:51;;;;;;;2.13;0.47;;;6.30;99.90;;;;;;5056103;28;20036;-75
2022/09/30 02:20:25;;;;;;;2.03;0.45;;;6.30;99.90;;;;;;5056228;28;20547;-75
2022/09/30 02:23:06;;;;;;;1.40;0.40;;;6.30;99.90;;;;;;5055896;28;20021;-75
2022/09/30 02:25:38;;;;;;;1.17;0.55;;;6.40;99.90;;;;;;5054516;28;20025;-75
2022/09/30 02:28:07;;;;;;;5.28;0.63;;;6.40;99.90;;;;;;5055673;28;20021;-75
2022/09/30 02:30:37;;;;;;;4.82;0.77;;;6.40;99.90;;;;;;5054456;28;20104;-75
2022/09/30 02:33:07;;;;;;;6.05;0.60;;;6.50;99.90;;;;;;5055824;28;20017;-75
2022/09/30 02:35:37;;;;;;;3.13;0.82;;;6.40;99.90;;;;;;5054323;28;20021;-75
2022/09/30 02:38:12;;;;;;;3.15;1.08;;;6.40;99.90;;;;;;5054046;28;20133;-75
2022/09/30 02:40:51;;;;;;;3.35;0.85;;;6.30;99.90;;;;;;5053882;28;20021;-75
2022/09/30 02:43:19;;;;;;;1.42;0.43;;;6.30;99.90;;;;;;5055907;28;20378;-75
2022/09/30 02:46:03;;;;;;;1.75;0.73;;;6.20;99.90;;;;;;5054223;28;20487;-75
2022/09/30 02:48:41;;;;;;;1.77;0.70;;;6.20;99.90;;;;;;5053896;28;20031;-75
2022/09/30 02:51:21;;;;;;;2.60;0.93;;;6.20;99.90;;;;;;5055221;28;20035;-75
2022/09/30 02:53:58;;;;;;;4.85;0.68;;;6.10;99.90;;;;;;5054055;28;20060;-76
2022/09/30 02:56:43;;;;;;;2.55;0.93;;;6.00;99.90;;;;;;5054151;28;20057;-75
2022/09/30 02:59:08;;;;;;;2.58;0.70;;;5.90;99.90;;;;;;5053852;28;20124;-75
2022/09/30 03:01:40;;;;;;;6.25;1.55;;;5.90;99.90;;;;;;5055097;28;20064;-74
2022/09/30 03:04:09;;;;;;;6.28;1.00;;;5.90;99.90;;;;;;5055577;28;20507;-74
2022/09/30 03:06:36;;;;;;;2.78;0.90;;;5.80;99.90;;;;;;5054787;28;20051;-74
2022/09/30 03:09:03;;;;;;;1.63;0.82;;;5.80;99.90;;;;;;5054802;28;20021;-74
2022/09/30 03:11:29;;;;;;;5.30;1.35;;;5.80;99.90;;;;;;5053735;28;20032;-75
2022/09/30 03:14:22;;;;;;;3.03;0.68;;;5.70;99.90;;;;;;5053496;28;20025;-75
2022/09/30 03:17:19;;;;;;;3.80;0.77;;;5.70;99.90;;;;;;5054583;28;20036;-75
2022/09/30 03:20:03;;;;;;;2.20;0.80;;;5.70;99.90;;;;;;5053405;28;20036;-75
2022/09/30 03:23:02;;;;;;;4.65;1.02;;;5.60;99.90;;;;;;5053264;28;20037;-75
2022/09/30 03:25:46;;;;;;;2.63;1.17;;;5.60;99.90;;;;;;5054946;28;20028;-75
2022/09/30 03:28:26;;;;;;;2.70;0.70;;;5.50;99.90;;;;;;5054913;28;20049;-75
2022/09/30 03:31:30;;;;;;;2.17;0.85;;;5.50;99.90;;;;;;5053135;28;20480;-75
2022/09/30 03:34:14;;;;;;;3.03;0.98;;;5.50;99.90;;;;;;5035165;28;20114;-75
2022/09/30 03:37:11;;;;;;;4.20;0.85;;;5.40;99.90;;;;;;5063159;28;20032;-74
2022/09/30 03:40:02;;;;;;;3.05;0.70;;;5.40;99.90;;;;;;5074386;28;20017;-75
2022/09/30 03:42:43;;;;;;;3.30;0.88;;;5.30;99.90;;;;;;5073519;28;20074;-75
2022/09/30 03:45:26;;;;;;;4.22;1.35;;;5.30;99.90;;;;;;5074409;28;20568;-75
2022/09/30 03:47:56;;;;;;;1.38;0.50;;;5.30;99.90;;;;;;5074202;28;20025;-75
2022/09/30 03:50:26;;;;;;;2.95;1.08;;;5.20;99.90;;;;;;5056210;28;20440;-75
2022/09/30 03:52:52;;;;;;;3.22;0.98;;;5.20;99.90;;;;;;5074038;28;20027;-74
2022/09/30 03:55:18;;;;;;;3.50;1.40;;;5.20;99.90;;;;;;5056081;28;20472;-75
2022/09/30 03:57:44;;;;;;;3.65;0.95;;;5.20;99.90;;;;;;5056281;28;20111;-74
2022/09/30 04:00:11;;;;;;;2.42;0.95;;;5.20;99.90;;;;;;5074056;28;20037;-75
2022/09/30 04:02:37;;;;;;;1.88;0.65;;;5.10;99.90;;;;;;5073890;28;20056;-75
2022/09/30 04:05:04;;;;;;;3.72;0.90;;;5.00;99.90;;;;;;5074110;28;20357;-75
2022/09/30 04:07:29;;;;;;;6.40;1.08;;;5.00;99.90;;;;;;5056018;28;20017;-75
2022/09/30 04:09:55;;;;;;;4.13;1.20;;;4.90;99.90;;;;;;5055802;28;20044;-75
2022/09/30 04:12:20;;;;;;;3.67;0.95;;;4.90;99.90;;;;;;5056046;28;20082;-75
2022/09/30 04:14:46;;;;;;;4.55;1.33;;;4.90;99.90;;;;;;5073828;28;20051;-74
2022/09/30 04:17:12;;;;;;;2.67;1.35;;;4.90;99.90;;;;;;5073665;28;20028;-74
2022/09/30 04:19:39;;;;;;;3.03;1.30;;;4.90;99.90;;;;;;5073938;28;20031;-75
2022/09/30 04:22:05;;;;;;;3.67;1.10;;;4.90;99.90;;;;;;5055775;28;20052;-75
2022/09/30 04:24:31;;;;;;;3.75;1.48;;;4.90;99.90;;;;;;5055841;28;20016;-75
2022/09/30 04:26:57;;;;;;;5.82;1.65;;;4.90;99.90;;;;;;5073813;28;20035;-75
2022/09/30 04:29:22;;;;;;;3.55;1.25;;;4.90;99.90;;;;;;5073827;28;20521;-75
2022/09/30 04:31:48;;;;;;;4.65;1.90;;;4.80;99.90;;;;;;5073635;28;20090;-75
2022/09/30 04:34:13;;;;;;;3.28;1.50;;;4.80;99.90;;;;;;5073382;28;20052;-75
2022/09/30 04:36:39;;;;;;;3.42;1.40;;;4.80;99.90;;;;;;5055601;28;20041;-75
2022/09/30 04:39:05;;;;;;;4.82;1.65;;;4.80;99.90;;;;;;5073737;28;20029;-75
2022/09/30 04:41:32;;;;;;;3.30;1.30;;;4.80;99.90;;;;;;5055697;28;20391;-75
2022/09/30 04:43:58;;;;;;;5.07;2.17;;;4.80;99.90;;;;;;5073748;28;20489;-75
2022/09/30 04:46:24;;;;;;;4.50;1.45;;;4.80;99.90;;;;;;5073384;28;20092;-76
2022/09/30 04:48:52;;;;;;;3.97;1.95;;;4.80;99.90;;;;;;5073623;28;20013;-76
2022/09/30 04:51:20;;;;;;;4.15;1.83;;;4.80;99.90;;;;;;5073374;28;20050;-76
2022/09/30 04:53:47;;;;;;;2.90;1.45;;;4.80;99.90;;;;;;5073180;28;20115;-76
2022/09/30 04:56:15;;;;;;;2.70;1.70;;;4.90;99.90;;;;;;5073694;28;20032;-75
2022/09/30 04:58:41;;;;;;;2.75;1.83;;;4.90;99.90;;;;;;5073150;28;20048;-75
2022/09/30 05:01:10;;;;;;;3.45;1.60;;;4.90;99.90;;;;;;5055500;28;20505;-75
2022/09/30 05:03:36;;;;;;;11.10;2.35;;;4.80;99.90;;;;;;5073407;28;20016;-74
2022/09/30 05:06:03;;;;;;;5.05;1.88;;;4.90;99.90;;;;;;5073828;28;20016;-75
2022/09/30 05:08:28;;;;;;;4.28;2.20;;;4.80;99.90;;;;;;5055215;28;20009;-75
2022/09/30 05:10:56;;;;;;;4.55;2.10;;;4.80;99.90;;;;;;5055190;28;20028;-75
2022/09/30 05:13:22;;;;;;;8.07;2.60;;;4.90;99.90;;;;;;5055158;28;20021;-76
2022/09/30 05:15:48;;;;;;;5.30;2.40;;;4.80;99.90;;;;;;5073315;28;20487;-74
2022/09/30 05:18:15;;;;;;;4.50;2.10;;;4.80;99.90;;;;;;5073915;28;20020;-74
2022/09/30 05:20:41;;;;;;;3.50;2.13;;;4.80;99.90;;;;;;5073079;28;20017;-74
2022/09/30 05:23:06;;;;;;;3.90;1.90;;;4.80;99.90;;;;;;5073440;28;20021;-75
2022/09/30 05:25:34;;;;;;;3.47;2.13;;;4.80;99.90;;;;;;5073492;28;20024;-74
2022/09/30 05:28:03;;;;;;;3.75;1.92;;;4.80;99.90;;;;;;5055187;28;20017;-76
2022/09/30 05:30:28;;;;;;;;;;;4.70;99.90;;;;;;5074087;28;20024;-74
2022/09/30 05:32:54;;;;;;;10.38;2.25;;;4.70;99.90;;;;;;5073438;28;20352;-76
2022/09/30 05:35:19;;;;;;;8.88;2.83;;;4.70;99.90;;;;;;5073786;28;20067;-76
2022/09/30 05:37:45;;;;;;;6.95;1.95;;;4.70;99.90;;;;;;5073050;28;20044;-75
2022/09/30 05:40:11;;;;;;;4.75;2.10;;;4.70;99.90;;;;;;5073045;28;20396;-75
2022/09/30 05:42:36;;;;;;;3.85;2.20;;;4.70;99.90;;;;;;5072903;28;20024;-75
2022/09/30 05:45:05;;;;;;;4.28;2.38;;;4.70;99.90;;;;;;5055029;28;20020;-75
2022/09/30 05:47:32;;;;;;;7.00;2.38;;;4.70;99.90;;;;;;5076114;28;20103;-75
2022/09/30 05:49:58;;;;;;;6.00;2.30;;;4.70;99.90;;;;;;5059093;28;20019;-75
2022/09/30 05:52:24;;;;;;;4.38;2.33;;;4.70;99.90;;;;;;5058657;28;20025;-75
2022/09/30 05:54:50;;;;;;;5.00;2.30;;;4.80;99.90;;;;;;5076228;28;20025;-74
2022/09/30 05:57:16;;;;;;;7.00;2.63;;;4.80;99.90;;;;;;5058440;28;20368;-74
2022/09/30 05:59:42;;;;;;;7.28;3.03;;;4.80;99.90;;;;;;5076525;28;20027;-75
2022/09/30 06:02:09;;;;;;;7.25;3.08;;;4.80;99.90;;;;;;5076211;28;20049;-74
2022/09/30 06:04:35;;;;;;;6.43;3.25;;;4.80;99.90;;;;;;5058358;28;20017;-75
2022/09/30 06:07:00;;;;;;;6.95;2.58;;;4.90;99.90;;;;;;5058291;28;20031;-75
2022/09/30 06:09:26;;;;;;;6.10;2.90;;;4.90;99.90;;;;;;5076082;28;20479;-75
2022/09/30 06:11:59;;;;;;;10.80;3.22;;;4.90;99.90;;;;;;5058242;28;20058;-75
2022/09/30 06:14:24;;;;;;;6.10;3.20;;;4.90;99.90;;;;;;5058304;28;20109;-75
2022/09/30 06:16:50;;;;;;;5.97;3.63;;;5.00;99.90;;;;;;5076046;28;20055;-75
2022/09/30 06:19:15;;;;;;;4.82;3.03;;;5.10;99.90;;;;;;5076042;28;20542;-75
2022/09/30 06:21:41;;;;;;;6.18;2.88;;;5.10;99.90;;;;;;5057747;28;20028;-76
2022/09/30 06:24:12;;;;;;;6.43;3.22;;;5.20;99.90;;;;;;5075988;28;20016;-76
2022/09/30 06:26:38;;;;;;;5.78;3.17;;;5.20;99.90;;;;;;5057877;28;20017;-75
2022/09/30 06:29:03;;;;;;;6.55;3.00;;;5.30;99.90;;;;;;5075731;28;20062;-75
2022/09/30 06:31:30;;;;;;;6.72;3.30;;;5.40;99.90;;;;;;5075760;28;20028;-75
2022/09/30 06:33:56;;;;;;;7.40;3.65;;;5.50;99.90;;;;;;5075801;28;20031;-75
2022/09/30 06:36:21;;;;;;;6.90;3.65;;;5.60;99.90;;;;;;5057224;28;20040;-74
2022/09/30 06:38:51;;;;;;;6.63;2.75;;;5.70;99.90;;;;;;5057855;28;20055;-75
2022/09/30 06:41:17;;;;;;;4.22;2.65;;;5.80;99.90;;;;;;5057459;28;20028;-75
2022/09/30 06:43:42;;;;;;;4.53;2.92;;;6.00;99.90;;;;;;5075670;28;20375;-75
2022/09/30 06:46:11;;;;;;;4.70;2.90;;;6.00;99.90;;;;;;5075308;28;20025;-75
2022/09/30 06:48:37;;;;;;;5.47;3.33;;;6.20;99.90;;;;;;5057660;28;20025;-75
2022/09/30 06:51:03;;;;;;;4.50;2.90;;;6.30;99.90;;;;;;5057589;28;20046;-75
2022/09/30 06:53:28;;;;;;;5.53;3.55;;;6.50;99.90;;;;;;5075348;28;20024;-75
2022/09/30 06:55:55;;;;;;;4.82;3.17;;;6.60;99.90;;;;;;5075001;28;20025;-75
2022/09/30 06:58:23;;;;;;;5.90;3.75;;;6.80;99.90;;;;;;5075133;28;20479;-74
2022/09/30 07:01:05;;;;;;;6.35;3.85;;;6.90;99.90;;;;;;5057492;28;20035;-74
2022/09/30 07:03:33;;;;;;;8.65;4.20;;;7.10;99.90;;;;;;5075231;28;20372;-74
2022/09/30 07:06:01;;;;;;;7.13;3.83;;;7.20;99.90;;;;;;5056927;28;20391;-74
2022/09/30 07:08:30;;;;;;;7.63;4.10;;;7.40;99.90;;;;;;5057127;28;20020;-74
2022/09/30 07:11:10;;;;;;;9.90;4.55;;;7.60;99.90;;;;;;5074953;28;20024;-73
2022/09/30 07:13:36;;;;;;;9.73;4.60;;;7.70;99.90;;;;;;5056999;28;20028;-73
2022/09/30 07:16:02;;;;;;;9.98;5.35;;;7.90;99.90;;;;;;5075058;28;20066;-74
2022/09/30 07:18:27;;;;;;;9.35;4.97;;;8.00;99.90;;;;;;5057194;28;20024;-73
2022/09/30 07:20:54;;;;;;;9.43;5.25;;;8.10;99.90;;;;;;5075163;28;20117;-74
2022/09/30 07:23:21;;;;;;;11.32;4.97;;;8.20;99.90;;;;;;5056933;28;20013;-74
2022/09/30 07:25:52;;;;;;;9.55;5.00;;;8.40;99.90;;;;;;5074745;28;20051;-73
2022/09/30 07:28:18;;;;;;;11.45;6.38;;;8.50;99.90;;;;;;5074925;28;20561;-73
2022/09/30 07:30:43;;;;;;;10.23;5.45;;;8.70;99.90;;;;;;5075380;28;20025;-72
2022/09/30 07:33:15;;;;;;;11.95;6.15;;;8.90;99.90;;;;;;5056958;28;20483;-73
2022/09/30 07:35:49;;;;;;;11.68;6.18;;;9.00;99.90;;;;;;5074685;28;20028;-73
2022/09/30 07:38:16;;;;;;;11.65;6.78;;;9.10;99.90;;;;;;5074795;28;20024;-74
2022/09/30 07:40:49;;;;;;;11.18;6.40;;;9.30;99.90;;;;;;5074239;28;20036;-73
2022/09/30 07:43:17;;;;;;;11.73;6.38;;;9.40;99.90;;;;;;5074458;28;20433;-74
2022/09/30 07:45:43;;;;;;;10.60;6.25;;;9.60;99.90;;;;;;5056276;28;20013;-73
2022/09/30 07:48:38;;;;;;;13.48;6.68;;;9.70;99.90;;;;;;5056098;28;20024;-73
2022/09/30 07:50:55;;;;;;;14.63;6.57;;;9.90;99.90;;;;;;5073940;28;20040;-73
2022/09/30 07:53:20;;;;;;;14.25;6.38;;;10.10;99.90;;;;;;5074030;28;20028;-73
2022/09/30 07:55:46;;;;;;;9.13;6.03;;;10.20;99.90;;;;;;5073757;28;20472;-73
2022/09/30 07:58:12;;;;;;;11.57;5.90;;;10.40;99.90;;;;;;5074158;28;20025;-73
2022/09/30 08:00:38;;;;;;;10.10;6.38;;;10.50;99.90;;;;;;5039143;28;20029;-73
2022/09/30 08:03:03;;;;;;;11.80;5.95;;;10.60;99.90;;;;;;5055946;28;20017;-74
2022/09/30 08:05:30;;;;;;;10.00;6.38;;;10.80;99.90;;;;;;5074353;28;20035;-74
2022/09/30 08:07:56;;;;;;;10.25;5.60;;;11.00;99.90;;;;;;5073414;28;20107;-74
2022/09/30 08:10:21;;;;;;;8.93;5.18;;;11.10;99.90;;;;;;5055084;28;20130;-73
2022/09/30 08:12:47;;;;;;;10.07;5.70;;;11.20;99.90;;;;;;5055571;28;20021;-73
2022/09/30 08:15:12;;;;;;;8.23;5.75;;;11.40;99.90;;;;;;5073398;28;20066;-74
2022/09/30 08:17:38;;;;;;;8.45;5.45;;;11.50;99.90;;;;;;5073678;28;20464;-74
2022/09/30 08:20:04;;;;;;;7.57;4.65;;;11.60;99.90;;;;;;5073286;28;20035;-74
2022/09/30 08:22:29;;;;;;;7.75;5.10;;;11.70;99.90;;;;;;5073713;28;20031;-75
2022/09/30 08:24:55;;;;;;;9.65;5.55;;;11.90;99.90;;;;;;5055300;28;20020;-73
2022/09/30 08:27:20;;;;;;;12.45;6.03;;;12.00;99.90;;;;;;5055303;28;20384;-73
2022/09/30 08:29:46;;;;;;;14.48;6.47;;;12.30;99.90;;;;;;5073101;28;20017;-73
2022/09/30 08:32:11;;;;;;;12.02;6.22;;;12.60;99.90;;;;;;5055107;28;20033;-74
2022/09/30 08:34:37;;;;;;;10.75;5.70;;;12.80;99.90;;;;;;5073330;28;20066;-74
2022/09/30 08:37:03;;;;;;;10.15;5.55;;;13.10;99.90;;;;;;5072985;28;20043;-74
2022/09/30 08:39:32;;;;;;;11.65;5.20;;;13.40;99.90;;;;;;5072934;28;20413;-74
2022/09/30 08:42:06;;;;;;;7.22;4.57;;;13.60;99.90;;;;;;5072966;28;20109;-74
2022/09/30 08:44:42;;;;;;;11.88;5.50;;;13.60;99.90;;;;;;5073343;28;20416;-74
2022/09/30 08:47:20;;;;;;;8.25;4.72;;;13.50;99.90;;;;;;5073256;28;20017;-74
2022/09/30 08:50:29;;;;;;;8.85;5.03;;;13.60;99.90;;;;;;5054910;28;20031;-74
2022/09/30 08:53:02;;;;;;;8.88;5.63;;;13.70;99.90;;;;;;5073601;28;20025;-74
2022/09/30 08:55:44;;;;;;;7.28;4.82;;;13.80;99.90;;;;;;5073462;28;20142;-72
2022/09/30 08:58:37;;;;;;;9.45;4.65;;;13.80;99.90;;;;;;5072799;28;20471;-73
2022/09/30 09:01:11;;;;;;;8.68;5.00;;;13.80;99.90;;;;;;5072927;28;20033;-74
2022/09/30 09:03:39;;;;;;;9.82;5.63;;;13.90;99.90;;;;;;5054886;28;20021;-74
2022/09/30 09:06:26;;;;;;;9.45;5.50;;;14.00;99.90;;;;;;5054871;28;20083;-73
2022/09/30 09:08:57;;;;;;;7.00;4.40;;;14.10;99.90;;;;;;5072714;28;20388;-74
2022/09/30 09:11:26;;;;;;;10.10;5.35;;;14.20;99.90;;;;;;5072745;28;20059;-74
2022/09/30 09:14:40;;;;;;;9.65;6.03;;;14.30;99.90;;;;;;5054821;28;20380;-73
2022/09/30 09:17:17;;;;;;;8.27;5.00;;;14.50;99.90;;;;;;5001194;28;20525;-74
2022/09/30 09:20:12;;;;;;;7.53;4.10;;;14.50;99.90;;;;;;5073000;28;20020;-74
2022/09/30 09:22:38;;;;;;;5.95;4.15;;;14.50;99.90;;;;;;5058594;28;20028;-74
2022/09/30 09:25:04;;;;;;;7.43;4.53;;;14.70;99.90;;;;;;5058560;28;20024;-74
2022/09/30 09:27:53;;;;;;;10.25;4.38;;;14.90;99.90;;;;;;5076290;28;20028;-74
2022/09/30 09:30:25;;;;;;;3.92;2.22;;;15.20;99.90;;;;;;5076368;28;20017;-74
2022/09/30 09:32:56;;;;;;;5.78;2.47;;;15.30;99.90;;;;;;5076285;28;20031;-74
2022/09/30 09:35:48;;;;;;;7.35;2.15;;;15.40;99.90;;;;;;5058357;28;20016;-74
2022/09/30 09:38:37;;;;;;;5.15;1.48;;;15.60;99.90;;;;;;5076650;28;20033;-74
2022/09/30 09:41:07;;;;;;;;;;;15.80;99.90;;;;;;5076511;28;20429;-74
2022/09/30 09:43:51;;;;;;;2.42;1.70;;;16.00;99.90;;;;;;5076168;28;19904;-74
2022/09/30 09:46:54;;;;;;;2.10;1.73;;;16.10;99.90;;;;;;5076158;28;20017;-74
2022/09/30 09:49:19;;;;;;;2.15;1.58;;;16.20;99.90;;;;;;5058326;28;20479;-74
2022/09/30 09:52:11;;;;;;;2.80;1.35;;;16.30;99.90;;;;;;5075963;28;20107;-74
2022/09/30 09:54:44;;;;;;;2.28;0.57;;;16.20;99.90;;;;;;5039914;28;20495;-74
2022/09/30 09:57:15;;;;;;;1.48;0.60;;;16.00;99.90;;;;;;5076477;28;20070;-74
2022/09/30 09:59:54;;;;;;;6.63;1.25;;;15.90;99.90;;;;;;5076532;28;20107;-74
2022/09/30 10:02:26;;;;;;;1.38;0.32;;;15.90;99.90;;;;;;5057812;28;20137;-73
2022/09/30 10:05:02;;;;;;;0.98;0.20;;;16.00;99.90;;;;;;5075815;28;20108;-74
2022/09/30 10:07:30;;;;;;;2.08;0.52;;;16.00;99.90;;;;;;5075748;28;20042;-74
2022/09/30 10:10:22;;;;;;;2.93;0.67;;;16.00;99.90;;;;;;5075972;28;20078;-74
2022/09/30 10:12:48;;;;;;;0.70;0.35;;;15.90;99.90;;;;;;5055128;28;20446;-74
2022/09/30 10:15:20;;;;;;;0.85;0.30;;;16.00;99.90;;;;;;5057538;28;20048;-73
2022/09/30 10:17:52;;;;;;;1.50;0.47;;;16.10;99.90;;;;;;5057589;28;20052;-74
2022/09/30 10:20:22;;;;;;;0.63;0.22;;;16.30;99.90;;;;;;5057316;28;20445;-74
2022/09/30 10:22:48;;;;;;;3.70;0.20;;;16.40;99.90;;;;;;5057519;28;20429;-74
2022/09/30 10:25:18;;;;;;;1.20;0.10;;;16.40;99.90;;;;;;5075902;28;20099;-73
2022/09/30 10:27:52;;;;;;;0.70;0.20;;;18.00;99.90;;;;;;5075359;28;20024;-74
2022/09/30 10:30:35;;;;;;;1.58;0.50;;;16.50;99.90;;;;;;5075429;28;20033;-74
2022/09/30 10:33:03;;;;;;;0.50;0.08;;;16.70;99.90;;;;;;5074507;28;20026;-74
2022/09/30 10:35:29;;;;;;;3.53;0.10;;;16.70;99.90;;;;;;5057250;28;20024;-74
2022/09/30 10:37:59;;;;;;;1.92;0.10;;;16.60;99.90;;;;;;5057168;28;20613;-74
2022/09/30 10:40:28;;;;;;;0.90;0.13;;;16.70;99.90;;;;;;5075133;28;20104;-74
2022/09/30 10:42:55;;;;;;;0.98;0.15;;;16.60;99.90;;;;;;5074939;28;20375;-74
2022/09/30 10:45:32;;;;;;;1.00;0.20;;;16.60;99.90;;;;;;5075008;28;20157;-74
2022/09/30 10:48:05;;;;;;;0.10;0.10;;;16.70;99.90;;;;;;5075257;28;20096;-72
2022/09/30 10:50:31;;;;;;;0.00;0.00;;;18.40;99.90;;;;;;5074909;28;20008;-73
2022/09/30 10:53:00;;;;;;;0.32;0.00;;;17.00;99.90;;;;;;5074820;28;20078;-73
2022/09/30 10:55:29;;;;;;;0.40;0.00;;;17.10;99.90;;;;;;5075082;28;20009;-73
2022/09/30 10:58:02;;;;;;;0.30;0.10;;;17.20;99.90;;;;;;5056818;28;20031;-74
2022/09/30 11:00:30;;;;;;;0.22;0.00;;;17.40;99.90;;;;;;5074456;28;20038;-73
2022/09/30 11:03:14;;;;;;;0.20;0.00;;;17.50;99.90;;;;;;5074691;28;20107;-73
2022/09/30 11:05:43;;;;;;;0.50;0.13;;;17.70;99.90;;;;;;5075195;28;20251;-73
2022/09/30 11:08:23;;;;;;;0.57;0.00;;;17.40;99.90;;;;;;5074548;28;20020;-73
2022/09/30 11:11:09;;;;;;;0.10;0.00;;;17.40;99.90;;;;;;5074441;28;20434;-73
2022/09/30 11:14:08;;;;;;;0.28;0.00;;;17.40;99.90;;;;;;5056647;28;20029;-74
2022/09/30 11:17:01;;;;;;;1.58;0.13;;;17.60;99.90;;;;;;5056444;28;20093;-74
2022/09/30 11:19:39;;;;;;;0.40;0.00;;;17.70;99.90;;;;;;5074339;28;20445;-74
2022/09/30 11:22:31;;;;;;;0.17;0.00;;;19.10;99.90;;;;;;5074883;28;20028;-73
2022/09/30 11:24:57;;;;;;;0.05;0.00;;;17.60;99.90;;;;;;5074278;28;20024;-74
2022/09/30 11:27:41;;;;;;;0.55;0.05;;;17.50;99.90;;;;;;5056139;28;20142;-73
2022/09/30 11:30:22;;;;;;;0.10;0.08;;;17.20;99.90;;;;;;5073985;28;20074;-73
2022/09/30 11:33:03;;;;;;;1.48;0.00;;;17.10;99.90;;;;;;5055983;28;20032;-72
2022/09/30 11:36:02;;;;;;;0.93;0.43;;;17.10;99.90;;;;;;5074498;28;20475;-73
2022/09/30 11:38:52;;;;;;;1.75;0.08;;;17.30;99.90;;;;;;5074166;28;20029;-74
2022/09/30 11:41:35;;;;;;;0.32;0.05;;;17.40;99.90;;;;;;5055883;28;20430;-74
2022/09/30 11:44:33;;;;;;;0.80;0.40;;;17.60;99.90;;;;;;5073811;28;20548;-74
2022/09/30 11:47:26;;;;;;;2.40;0.08;;;17.60;99.90;;;;;;5074018;28;20467;-74
2022/09/30 11:50:27;;;;;;;1.95;0.25;;;17.40;99.90;;;;;;5073751;28;20013;-74
2022/09/30 11:53:18;;;;;;;0.93;0.10;;;16.90;99.90;;;;;;5056903;28;20021;-74
2022/09/30 11:56:05;;;;;;;0.85;0.10;;;16.90;99.90;;;;;;5074231;28;20521;-73
2022/09/30 11:58:38;;;;;;;1.48;0.00;;;16.80;99.90;;;;;;5073557;28;20035;-74
2022/09/30 12:01:18;;;;;;;1.50;0.10;;;16.80;99.90;;;;;;5055670;28;20020;-74
2022/09/30 12:03:54;;;;;;;0.95;0.00;;;16.90;99.90;;;;;;5055581;28;20028;-73
2022/09/30 12:06:54;;;;;;;0.20;0.00;;;17.10;99.90;;;;;;5074033;28;20020;-73
2022/09/30 12:09:27;;;;;;;0.35;0.00;;;17.30;99.90;;;;;;5042816;28;20399;-75
2022/09/30 12:11:59;;;;;;;0.73;0.10;;;17.20;99.90;;;;;;5073459;28;20020;-75
2022/09/30 12:14:32;;;;;;;1.05;0.00;;;17.20;99.90;;;;;;5073724;28;20035;-76
2022/09/30 12:17:00;;;;;;;0.85;0.10;;;17.50;99.90;;;;;;5073965;28;20108;-76
2022/09/30 12:19:33;;;;;;;1.17;0.55;;;18.00;99.90;;;;;;5055276;28;20119;-75
2022/09/30 12:22:20;;;;;;;1.05;0.10;;;18.50;99.90;;;;;;5073390;28;20029;-76
2022/09/30 12:24:46;;;;;;;0.45;0.00;;;18.60;99.90;;;;;;5073348;28;20107;-76
2022/09/30 12:27:33;;;;;;;2.25;0.35;;;18.50;99.90;;;;;;5073399;28;20076;-76
2022/09/30 12:30:17;;;;;;;1.05;0.00;;;18.70;99.90;;;;;;5073198;28;20043;-76
2022/09/30 12:33:09;;;;;;;0.45;0.10;;;19.10;99.90;;;;;;5073146;28;20033;-76
2022/09/30 12:38:34;;;;;;;2.72;0.28;;;19.10;99.90;;;;;;5051749;28;20041;-74
2022/09/30 12:41:24;;;;;;;1.02;0.10;;;18.70;99.90;;;;;;5053483;28;20039;-74
2022/09/30 12:44:23;;;;;;;0.63;0.25;;;18.40;99.90;;;;;;5053068;28;20052;-74
2022/09/30 12:47:04;;;;;;;0.65;0.20;;;17.80;99.90;;;;;;5024454;28;20041;-74
2022/09/30 12:49:31;;;;;;;0.80;0.17;;;17.40;99.90;;;;;;5052983;28;20491;-74
2022/09/30 12:52:02;;;;;;;0.20;0.00;;;17.20;99.90;;;;;;5051715;28;20017;-74
2022/09/30 12:54:39;;;;;;;2.47;0.20;;;17.20;99.90;;;;;;5051709;28;20025;-75
2022/09/30 12:57:10;;;;;;;3.05;0.38;;;17.60;99.90;;;;;;5057065;28;20029;-74
2022/09/30 12:59:49;;;;;;;1.33;0.35;;;18.00;99.90;;;;;;5056941;28;20033;-74
2022/09/30 13:02:34;;;;;;;;;;;18.40;99.90;;;;;;5056076;28;20070;-74
2022/09/30 13:05:25;;;;;;;1.42;0.35;;;18.70;99.90;;;;;;5055732;28;19904;-74
2022/09/30 13:08:19;;;;;;;1.13;0.47;;;18.80;99.90;;;;;;5056829;28;20021;-74
2022/09/30 13:10:51;;;;;;;1.85;0.38;;;18.70;99.90;;;;;;5056799;28;20029;-74
2022/09/30 13:13:32;;;;;;;2.63;0.63;;;18.90;99.90;;;;;;5057042;28;20444;-74
2022/09/30 13:16:02;;;;;;;2.03;0.30;;;18.90;99.90;;;;;;5057062;28;20028;-74
2022/09/30 13:18:28;;;;;;;0.40;0.10;;;19.00;99.90;;;;;;5056622;28;20391;-74
2022/09/30 13:21:07;;;;;;;0.60;0.17;;;19.10;99.90;;;;;;5056773;28;20036;-77
2022/09/30 13:23:40;;;;;;;0.50;0.10;;;19.30;99.90;;;;;;5056904;28;20502;-77
2022/09/30 13:26:33;;;;;;;0.70;0.10;;;19.50;99.90;;;;;;5055240;28;20108;-77
2022/09/30 13:28:59;;;;;;;1.52;0.10;;;19.50;99.60;;;;;;5056366;28;20049;-76